Time;durP1;ratioP1;P1;durP2;ratioP2;P2;SDS_P1;SDS_P2;PMS_P1;PMS_P2;Temp;Humidity;BMP_temperature;BMP_pressure;BME280_temperature;BME280_humidity;BME280_pressure;Samples;Min_cycle;Max_cycle;Signal;HPM_P1;HPM_P2
2023/04/18 00:02:27;;;;;;;1.38;1.00;;;;;;;;;;5004186;28;20046;-72
2023/04/18 00:04:53;;;;;;;1.05;1.00;;;;;;;;;;5002182;28;20033;-72
2023/04/18 00:07:18;;;;;;;1.10;1.00;;;;;;;;;;5006247;28;20018;-74
2023/04/18 00:09:43;;;;;;;1.52;1.10;;;;;;;;;;5014374;28;20098;-73
2023/04/18 00:12:09;;;;;;;1.20;1.15;;;;;;;;;;5014246;28;20013;-73
2023/04/18 00:14:36;;;;;;;0.88;0.88;;;;;;;;;;5013592;28;20026;-76
2023/04/18 00:17:03;;;;;;;0.90;0.90;;;;;;;;;;5009813;28;20021;-73
2023/04/18 00:19:28;;;;;;;0.90;0.90;;;;;;;;;;5001137;28;20113;-75
2023/04/18 00:21:54;;;;;;;0.68;0.68;;;;;;;;;;5002902;28;20116;-74
2023/04/18 00:24:20;;;;;;;1.00;0.85;;;;;;;;;;5013623;28;20037;-72
2023/04/18 00:26:45;;;;;;;0.88;0.88;;;;;;;;;;5014479;28;20021;-73
2023/04/18 00:29:11;;;;;;;0.85;0.85;;;;;;;;;;5016469;28;20045;-72
2023/04/18 00:31:36;;;;;;;1.00;0.70;;;;;;;;;;5007505;28;20034;-73
2023/04/18 00:34:02;;;;;;;0.95;0.80;;;;;;;;;;5005140;28;20022;-73
2023/04/18 00:36:27;;;;;;;0.90;0.77;;;;;;;;;;5001209;28;20093;-75
2023/04/18 00:38:52;;;;;;;0.75;0.75;;;;;;;;;;5011754;28;20373;-72
2023/04/18 00:41:18;;;;;;;0.90;0.90;;;;;;;;;;5015837;28;20344;-72
2023/04/18 00:43:44;;;;;;;0.85;0.80;;;;;;;;;;5016632;28;20093;-71
2023/04/18 00:46:09;;;;;;;0.63;0.60;;;;;;;;;;5012242;28;20029;-72
2023/04/18 00:48:35;;;;;;;0.77;0.77;;;;;;;;;;5014887;28;20030;-71
2023/04/18 00:51:00;;;;;;;0.80;0.70;;;;;;;;;;5008935;28;20037;-72
2023/04/18 00:53:26;;;;;;;0.82;0.80;;;;;;;;;;5006419;28;20033;-71
2023/04/18 00:55:51;;;;;;;0.90;0.85;;;;;;;;;;5013087;28;20430;-72
2023/04/18 00:58:17;;;;;;;0.88;0.88;;;;;;;;;;5004150;28;20409;-72
2023/04/18 01:00:42;;;;;;;1.08;0.98;;;;;;;;;;5012040;28;20728;-73
2023/04/18 01:03:09;;;;;;;1.08;0.90;;;;;;;;;;5003965;28;20112;-73
2023/04/18 01:05:35;;;;;;;0.68;0.68;;;;;;;;;;5014775;28;20042;-71
2023/04/18 01:08:00;;;;;;;0.80;0.80;;;;;;;;;;5015197;28;20029;-71
2023/04/18 01:10:26;;;;;;;1.30;0.80;;;;;;;;;;5014405;28;20024;-72
2023/04/18 01:13:11;;;;;;;1.40;0.80;;;;;;;;;;5016621;28;20481;-71
2023/04/18 01:15:38;;;;;;;0.50;0.50;;;;;;;;;;5003964;28;20036;-75
2023/04/18 01:18:03;;;;;;;0.65;0.65;;;;;;;;;;4999868;28;20106;-72
2023/04/18 01:20:30;;;;;;;0.60;0.60;;;;;;;;;;5004585;28;20039;-71
2023/04/18 01:22:56;;;;;;;0.88;0.70;;;;;;;;;;5010984;28;20029;-74
2023/04/18 01:25:21;;;;;;;1.52;0.73;;;;;;;;;;5014227;28;20032;-72
2023/04/18 01:27:47;;;;;;;1.02;0.75;;;;;;;;;;5013513;28;20057;-72
2023/04/18 01:30:12;;;;;;;0.60;0.60;;;;;;;;;;5012104;28;21233;-75
2023/04/18 01:32:37;;;;;;;1.40;0.80;;;;;;;;;;5014159;28;20034;-72
2023/04/18 01:35:03;;;;;;;0.95;0.77;;;;;;;;;;5004460;28;20032;-71
2023/04/18 01:37:30;;;;;;;0.63;0.63;;;;;;;;;;5011660;28;20056;-72
2023/04/18 01:39:57;;;;;;;0.63;0.63;;;;;;;;;;5003834;28;20463;-73
2023/04/18 01:42:22;;;;;;;0.68;0.68;;;;;;;;;;5010131;28;20123;-74
2023/04/18 01:44:47;;;;;;;0.90;0.70;;;;;;;;;;5014196;28;20834;-74
2023/04/18 01:47:13;;;;;;;0.98;0.70;;;;;;;;;;5015123;28;20119;-71
2023/04/18 01:49:41;;;;;;;2.13;0.90;;;;;;;;;;5012771;28;20033;-71
2023/04/18 01:52:07;;;;;;;0.88;0.88;;;;;;;;;;5012018;28;20033;-72
2023/04/18 01:54:32;;;;;;;0.80;0.68;;;;;;;;;;5012195;28;20028;-73
2023/04/18 01:56:57;;;;;;;0.80;0.80;;;;;;;;;;5013437;28;20497;-72
2023/04/18 01:59:23;;;;;;;1.30;0.77;;;;;;;;;;5001550;28;20467;-73
2023/04/18 02:01:48;;;;;;;0.82;0.82;;;;;;;;;;5014175;28;20022;-72
2023/04/18 02:04:13;;;;;;;0.70;0.70;;;;;;;;;;5012224;28;20088;-76
2023/04/18 02:06:39;;;;;;;1.13;1.00;;;;;;;;;;5012429;28;20422;-71
2023/04/18 02:09:04;;;;;;;1.00;1.00;;;;;;;;;;5014805;28;20013;-73
2023/04/18 02:11:29;;;;;;;1.17;1.00;;;;;;;;;;5012561;28;20025;-71
2023/04/18 02:13:55;;;;;;;1.10;0.98;;;;;;;;;;5012814;28;20054;-71
2023/04/18 02:16:20;;;;;;;1.60;1.20;;;;;;;;;;5012238;28;20639;-73
2023/04/18 02:18:45;;;;;;;1.23;1.13;;;;;;;;;;5004823;28;20071;-72
2023/04/18 02:21:11;;;;;;;1.33;1.13;;;;;;;;;;5007114;28;20099;-70
2023/04/18 02:23:36;;;;;;;1.13;1.10;;;;;;;;;;5007967;28;20033;-71
2023/04/18 02:26:01;;;;;;;0.95;0.95;;;;;;;;;;5014841;28;20117;-70
2023/04/18 02:28:27;;;;;;;0.90;0.85;;;;;;;;;;5015302;28;20062;-71
2023/04/18 02:30:52;;;;;;;0.80;0.80;;;;;;;;;;5012533;28;20029;-72
2023/04/18 02:33:17;;;;;;;0.80;0.80;;;;;;;;;;5012836;28;20990;-71
2023/04/18 02:35:43;;;;;;;1.92;1.23;;;;;;;;;;5013811;28;20025;-74
2023/04/18 02:38:08;;;;;;;1.27;1.17;;;;;;;;;;5012981;28;20078;-74
2023/04/18 02:40:33;;;;;;;0.90;0.88;;;;;;;;;;5013052;28;20411;-71
2023/04/18 02:43:00;;;;;;;0.80;0.80;;;;;;;;;;5013821;28;20030;-75
2023/04/18 02:45:25;;;;;;;2.17;1.30;;;;;;;;;;5013760;28;20024;-72
2023/04/18 02:47:50;;;;;;;1.20;1.10;;;;;;;;;;5013461;28;20025;-72
2023/04/18 02:50:16;;;;;;;1.40;1.10;;;;;;;;;;5014014;28;20116;-72
2023/04/18 02:52:42;;;;;;;0.98;0.98;;;;;;;;;;5013396;28;20121;-71
2023/04/18 02:55:08;;;;;;;1.00;1.00;;;;;;;;;;5010432;28;20090;-72
2023/04/18 02:57:33;;;;;;;1.17;1.08;;;;;;;;;;5012670;28;20033;-74
2023/04/18 02:59:58;;;;;;;1.30;1.20;;;;;;;;;;5011936;28;20082;-72
2023/04/18 03:02:24;;;;;;;1.13;1.08;;;;;;;;;;5012168;28;20432;-75
2023/04/18 03:04:49;;;;;;;1.65;1.55;;;;;;;;;;5010825;28;20504;-71
2023/04/18 03:07:14;;;;;;;1.80;1.20;;;;;;;;;;5012224;28;20044;-71
2023/04/18 03:09:40;;;;;;;1.35;1.25;;;;;;;;;;5008812;28;20062;-73
2023/04/18 03:12:05;;;;;;;1.77;1.35;;;;;;;;;;5010985;28;20057;-71
2023/04/18 03:14:30;;;;;;;1.67;1.55;;;;;;;;;;5011032;28;20032;-72
2023/04/18 03:16:56;;;;;;;1.60;1.38;;;;;;;;;;5013024;28;20109;-70
2023/04/18 03:19:21;;;;;;;1.65;1.50;;;;;;;;;;5012817;28;20068;-70
2023/04/18 03:21:47;;;;;;;1.30;1.30;;;;;;;;;;5003609;28;20395;-71
2023/04/18 03:24:12;;;;;;;1.60;1.30;;;;;;;;;;5011130;28;20033;-73
2023/04/18 03:26:37;;;;;;;1.25;1.15;;;;;;;;;;5011953;28;20030;-72
2023/04/18 03:29:03;;;;;;;1.40;1.30;;;;;;;;;;5014149;28;20049;-74
2023/04/18 03:31:28;;;;;;;1.23;1.23;;;;;;;;;;5011648;28;20114;-71
2023/04/18 03:33:53;;;;;;;1.10;1.10;;;;;;;;;;5010909;28;20041;-71
2023/04/18 03:36:24;;;;;;;1.20;1.10;;;;;;;;;;5010042;28;20071;-71
2023/04/18 03:38:49;;;;;;;1.30;1.20;;;;;;;;;;5011747;28;20038;-71
2023/04/18 03:41:14;;;;;;;3.00;2.05;;;;;;;;;;5011573;28;20090;-71
2023/04/18 03:43:40;;;;;;;2.38;2.13;;;;;;;;;;5010329;28;20752;-73
2023/04/18 03:46:05;;;;;;;1.70;1.60;;;;;;;;;;5006959;28;20337;-71
2023/04/18 03:48:34;;;;;;;1.48;1.38;;;;;;;;;;5016052;28;20029;-70
2023/04/18 03:50:59;;;;;;;1.50;1.40;;;;;;;;;;5015425;28;20034;-70
2023/04/18 03:53:25;;;;;;;1.60;1.50;;;;;;;;;;4997902;28;20040;-70
2023/04/18 03:55:50;;;;;;;4.65;1.52;;;;;;;;;;5001456;28;20037;-71
2023/04/18 03:58:16;;;;;;;2.72;1.40;;;;;;;;;;5007126;28;20057;-71
2023/04/18 04:00:42;;;;;;;1.80;1.70;;;;;;;;;;5002421;28;20033;-75
2023/04/18 04:03:07;;;;;;;15.15;13.70;;;;;;;;;;5000925;28;20455;-71
2023/04/18 04:05:33;;;;;;;2.70;2.47;;;;;;;;;;5004168;28;20070;-72
2023/04/18 04:07:58;;;;;;;1.55;1.33;;;;;;;;;;5001894;28;20625;-73
2023/04/18 04:10:23;;;;;;;1.55;1.33;;;;;;;;;;5004260;28;20426;-72
2023/04/18 04:12:49;;;;;;;2.08;1.58;;;;;;;;;;5015459;28;21181;-71
2023/04/18 04:15:14;;;;;;;2.05;1.85;;;;;;;;;;5015022;28;20032;-71
2023/04/18 04:17:39;;;;;;;1.80;1.52;;;;;;;;;;5015657;28;20027;-72
2023/04/18 04:20:06;;;;;;;2.20;1.77;;;;;;;;;;5015818;28;20041;-71
2023/04/18 04:22:31;;;;;;;4.40;4.00;;;;;;;;;;5010588;28;20025;-72
2023/04/18 04:24:57;;;;;;;11.40;7.85;;;;;;;;;;5008049;28;20037;-71
2023/04/18 04:27:23;;;;;;;9.25;7.18;;;;;;;;;;5008689;28;20025;-75
2023/04/18 04:29:51;;;;;;;22.15;17.30;;;;;;;;;;5008542;28;20105;-71
2023/04/18 04:32:16;;;;;;;141.02;114.63;;;;;;;;;;5006323;28;20038;-73
2023/04/18 04:34:41;;;;;;;13.98;12.48;;;;;;;;;;5013153;28;20096;-72
2023/04/18 04:37:07;;;;;;;16.83;14.88;;;;;;;;;;5005186;28;20360;-71
2023/04/18 04:39:32;;;;;;;14.15;12.80;;;;;;;;;;5013695;28;20518;-72
2023/04/18 04:42:00;;;;;;;11.57;10.40;;;;;;;;;;5010685;28;20397;-71
2023/04/18 04:44:25;;;;;;;38.53;31.20;;;;;;;;;;5007694;28;20041;-73
2023/04/18 04:46:51;;;;;;;15.52;12.73;;;;;;;;;;5004605;28;20122;-71
2023/04/18 04:49:16;;;;;;;5.30;4.78;;;;;;;;;;5012373;28;20033;-72
2023/04/18 04:51:42;;;;;;;3.63;3.33;;;;;;;;;;5008986;28;20120;-71
2023/04/18 04:54:07;;;;;;;7.22;6.47;;;;;;;;;;4999436;28;20539;-71
2023/04/18 04:56:32;;;;;;;5.20;4.70;;;;;;;;;;5001420;28;20025;-72
2023/04/18 04:58:58;;;;;;;11.55;10.35;;;;;;;;;;5002015;28;20508;-71
2023/04/18 05:01:23;;;;;;;10.80;9.63;;;;;;;;;;5006060;28;20034;-72
2023/04/18 05:03:50;;;;;;;5.10;3.85;;;;;;;;;;5002706;28;20108;-70
2023/04/18 05:06:19;;;;;;;5.78;4.18;;;;;;;;;;5010584;28;20370;-71
2023/04/18 05:08:46;;;;;;;16.13;13.77;;;;;;;;;;5014866;28;20103;-71
2023/04/18 05:11:11;;;;;;;4.40;4.00;;;;;;;;;;5013024;28;20049;-74
2023/04/18 05:13:36;;;;;;;23.63;18.27;;;;;;;;;;5013873;28;20065;-72
2023/04/18 05:16:02;;;;;;;9.00;8.00;;;;;;;;;;5012221;28;20047;-72
2023/04/18 05:18:27;;;;;;;5.72;5.18;;;;;;;;;;5000913;28;20029;-75
2023/04/18 05:20:52;;;;;;;8.50;6.57;;;;;;;;;;5000919;28;20045;-73
2023/04/18 05:23:18;;;;;;;6.82;5.43;;;;;;;;;;5001790;28;20018;-72
2023/04/18 05:25:43;;;;;;;3.08;2.78;;;;;;;;;;5001692;28;20036;-75
2023/04/18 05:28:08;;;;;;;23.35;18.90;;;;;;;;;;5012908;28;20050;-74
2023/04/18 05:30:34;;;;;;;18.30;16.23;;;;;;;;;;5012530;28;20025;-72
2023/04/18 05:32:59;;;;;;;12.35;10.90;;;;;;;;;;5012054;28;20429;-72
2023/04/18 05:35:25;;;;;;;9.50;8.35;;;;;;;;;;5014442;28;20030;-74
2023/04/18 05:37:50;;;;;;;14.60;13.13;;;;;;;;;;5015847;28;20109;-71
2023/04/18 05:40:16;;;;;;;6.97;4.97;;;;;;;;;;5015901;28;20448;-71
2023/04/18 05:42:41;;;;;;;3.65;3.33;;;;;;;;;;5013395;28;20034;-73
2023/04/18 05:45:06;;;;;;;15.20;11.95;;;;;;;;;;5005439;28;20042;-73
2023/04/18 05:47:32;;;;;;;18.13;15.25;;;;;;;;;;5012848;28;20062;-74
2023/04/18 05:49:57;;;;;;;29.38;25.27;;;;;;;;;;5013665;28;20030;-72
2023/04/18 05:52:24;;;;;;;15.35;13.43;;;;;;;;;;5010596;28;20034;-73
2023/04/18 05:54:50;;;;;;;8.55;7.30;;;;;;;;;;5014228;28;20121;-74
2023/04/18 05:57:15;;;;;;;10.23;7.55;;;;;;;;;;5013663;28;20112;-74
2023/04/18 05:59:41;;;;;;;16.83;10.70;;;;;;;;;;5014615;28;20358;-73
2023/04/18 06:02:11;;;;;;;21.55;15.10;;;;;;;;;;5013358;28;20117;-72
2023/04/18 06:04:37;;;;;;;13.80;10.20;;;;;;;;;;5014600;28;20033;-74
2023/04/18 06:07:02;;;;;;;18.10;13.43;;;;;;;;;;5013554;28;20021;-73
2023/04/18 06:09:27;;;;;;;7.60;6.80;;;;;;;;;;5014587;28;20033;-72
2023/04/18 06:11:53;;;;;;;76.78;65.53;;;;;;;;;;5012359;28;20460;-72
2023/04/18 06:14:18;;;;;;;44.28;30.88;;;;;;;;;;5014891;28;20030;-72
2023/04/18 06:16:43;;;;;;;12.65;9.00;;;;;;;;;;5011873;28;20030;-72
2023/04/18 06:19:09;;;;;;;34.25;19.95;;;;;;;;;;5014797;28;20109;-72
2023/04/18 06:21:34;;;;;;;210.60;102.10;;;;;;;;;;5013447;28;20440;-72
2023/04/18 06:24:00;;;;;;;33.65;19.52;;;;;;;;;;5012692;28;20152;-72
2023/04/18 06:26:25;;;;;;;67.72;30.00;;;;;;;;;;5015355;28;20098;-72
2023/04/18 06:28:51;;;;;;;67.13;31.30;;;;;;;;;;5010899;28;20152;-73
2023/04/18 06:31:16;;;;;;;37.75;19.58;;;;;;;;;;5010109;28;20405;-74
2023/04/18 06:33:42;;;;;;;55.53;26.42;;;;;;;;;;5010084;28;20443;-73
2023/04/18 06:36:07;;;;;;;120.60;57.03;;;;;;;;;;5012940;28;20490;-74
2023/04/18 06:38:33;;;;;;;10.63;7.65;;;;;;;;;;5014920;28;20036;-73
2023/04/18 06:40:58;;;;;;;29.95;15.98;;;;;;;;;;5011619;28;20112;-73
2023/04/18 06:43:23;;;;;;;20.40;12.45;;;;;;;;;;5013364;28;20029;-73
2023/04/18 06:45:49;;;;;;;16.95;14.10;;;;;;;;;;5012146;28;20083;-74
2023/04/18 06:48:14;;;;;;;33.53;19.83;;;;;;;;;;5015407;28;20110;-72
2023/04/18 06:50:39;;;;;;;13.23;9.35;;;;;;;;;;5014008;28;20067;-72
2023/04/18 06:53:06;;;;;;;16.02;10.35;;;;;;;;;;5007067;28;20821;-73
2023/04/18 06:55:32;;;;;;;9.30;7.03;;;;;;;;;;5010810;28;20150;-72
2023/04/18 06:57:59;;;;;;;49.92;30.17;;;;;;;;;;5013054;28;20464;-72
2023/04/18 07:00:24;;;;;;;9.05;6.85;;;;;;;;;;5010390;28;20022;-73
2023/04/18 07:02:50;;;;;;;64.30;39.50;;;;;;;;;;5012127;28;20025;-73
2023/04/18 07:05:15;;;;;;;37.88;21.65;;;;;;;;;;5013922;28;20030;-72
2023/04/18 07:07:40;;;;;;;12.85;7.47;;;;;;;;;;5011558;28;20022;-72
2023/04/18 07:10:08;;;;;;;5.53;2.95;;;;;;;;;;5012334;28;20062;-71
2023/04/18 07:12:33;;;;;;;5.00;3.70;;;;;;;;;;5014141;28;20040;-72
2023/04/18 07:14:59;;;;;;;4.57;3.20;;;;;;;;;;5013026;28;20026;-73
2023/04/18 07:17:24;;;;;;;4.10;3.42;;;;;;;;;;5008253;28;20372;-72
2023/04/18 07:19:49;;;;;;;8.63;5.70;;;;;;;;;;5017577;28;20026;-71
2023/04/18 07:22:15;;;;;;;5.65;4.00;;;;;;;;;;5017494;28;20049;-72
2023/04/18 07:24:41;;;;;;;2.95;2.75;;;;;;;;;;5019445;28;20040;-72
2023/04/18 07:27:08;;;;;;;5.53;4.40;;;;;;;;;;5014934;28;20025;-71
2023/04/18 07:29:33;;;;;;;28.08;14.85;;;;;;;;;;5016778;28;20018;-72
2023/04/18 07:31:59;;;;;;;35.67;21.98;;;;;;;;;;5011876;28;20057;-73
2023/04/18 07:34:26;;;;;;;86.97;54.45;;;;;;;;;;5016579;28;20585;-72
2023/04/18 07:36:51;;;;;;;15.93;11.02;;;;;;;;;;5013761;28;20421;-71
2023/04/18 07:39:17;;;;;;;5.97;4.68;;;;;;;;;;5017342;28;20033;-71
2023/04/18 07:41:42;;;;;;;6.47;5.18;;;;;;;;;;5014455;28;20036;-72
2023/04/18 07:44:07;;;;;;;9.80;7.15;;;;;;;;;;5016860;28;20036;-72
2023/04/18 07:46:33;;;;;;;20.90;15.60;;;;;;;;;;5016261;28;20408;-73
2023/04/18 07:48:58;;;;;;;7.70;5.32;;;;;;;;;;5016276;28;20351;-71
2023/04/18 07:51:29;;;;;;;7.38;6.45;;;;;;;;;;5013341;28;20040;-74
2023/04/18 07:53:55;;;;;;;7.47;5.50;;;;;;;;;;5013593;28;20038;-73
2023/04/18 07:56:20;;;;;;;4.50;4.10;;;;;;;;;;5013738;28;20029;-72
2023/04/18 07:58:45;;;;;;;3.90;3.50;;;;;;;;;;5017423;28;20029;-71
2023/04/18 08:01:14;;;;;;;4.50;4.10;;;;;;;;;;5017335;28;21352;-72
2023/04/18 08:03:39;;;;;;;7.88;6.50;;;;;;;;;;5014841;28;20029;-71
2023/04/18 08:06:05;;;;;;;55.13;36.92;;;;;;;;;;5014376;28;20025;-71
2023/04/18 08:08:30;;;;;;;7.70;6.90;;;;;;;;;;5010205;28;20029;-72
2023/04/18 08:10:55;;;;;;;11.52;10.23;;;;;;;;;;5014549;28;20029;-72
2023/04/18 08:13:21;;;;;;;7.30;6.57;;;;;;;;;;5015683;28;20349;-71
2023/04/18 08:15:46;;;;;;;4.63;4.20;;;;;;;;;;5014595;28;20037;-72
2023/04/18 08:18:11;;;;;;;13.63;12.23;;;;;;;;;;5014445;28;20085;-71
2023/04/18 08:20:37;;;;;;;17.95;13.82;;;;;;;;;;5015706;28;20384;-72
2023/04/18 08:23:02;;;;;;;8.13;7.40;;;;;;;;;;5016676;28;20101;-72
2023/04/18 08:25:28;;;;;;;11.18;10.07;;;;;;;;;;5015665;28;20021;-72
2023/04/18 08:27:54;;;;;;;7.55;6.82;;;;;;;;;;5013320;28;20045;-72
2023/04/18 08:30:19;;;;;;;12.02;7.03;;;;;;;;;;5015399;28;20036;-72
2023/04/18 08:32:44;;;;;;;19.30;17.33;;;;;;;;;;5016469;28;20040;-72
2023/04/18 08:35:10;;;;;;;21.17;17.27;;;;;;;;;;5015889;28;20025;-71
2023/04/18 08:37:35;;;;;;;6.93;5.85;;;;;;;;;;5016971;28;20025;-72
2023/04/18 08:40:02;;;;;;;40.22;33.25;;;;;;;;;;5017181;28;20461;-72
2023/04/18 08:42:28;;;;;;;59.38;43.30;;;;;;;;;;5017225;28;20416;-74
2023/04/18 08:44:53;;;;;;;71.50;51.65;;;;;;;;;;5015383;28;20029;-72
2023/04/18 08:47:19;;;;;;;9.15;8.25;;;;;;;;;;5016584;28;20451;-72
2023/04/18 08:49:45;;;;;;;26.90;20.70;;;;;;;;;;5017320;28;20037;-72
2023/04/18 08:52:15;;;;;;;30.92;25.45;;;;;;;;;;5015838;28;20029;-71
2023/04/18 08:54:41;;;;;;;15.10;13.15;;;;;;;;;;5014088;28;20110;-71
2023/04/18 08:57:08;;;;;;;9.32;7.47;;;;;;;;;;5014660;28;20134;-72
2023/04/18 08:59:36;;;;;;;10.45;8.07;;;;;;;;;;5015108;28;20030;-72
2023/04/18 09:02:03;;;;;;;30.60;20.98;;;;;;;;;;5013280;28;20029;-72
2023/04/18 09:04:31;;;;;;;28.52;19.05;;;;;;;;;;5015155;28;20033;-72
2023/04/18 09:06:56;;;;;;;105.20;63.83;;;;;;;;;;5015013;28;20037;-71
2023/04/18 09:09:26;;;;;;;14.48;11.48;;;;;;;;;;5016790;28;20022;-71
2023/04/18 09:11:51;;;;;;;8.93;7.70;;;;;;;;;;5013290;28;20029;-72
2023/04/18 09:14:24;;;;;;;8.52;6.38;;;;;;;;;;5014832;28;20038;-72
2023/04/18 09:16:50;;;;;;;9.13;7.13;;;;;;;;;;5014269;28;20018;-74
2023/04/18 09:19:16;;;;;;;24.65;16.95;;;;;;;;;;5013985;28;20599;-73
2023/04/18 09:21:45;;;;;;;11.00;9.75;;;;;;;;;;5013377;28;20455;-72
2023/04/18 09:24:22;;;;;;;10.18;8.98;;;;;;;;;;5016718;28;20067;-72
2023/04/18 09:26:48;;;;;;;25.92;19.85;;;;;;;;;;5014660;28;20613;-72
2023/04/18 09:29:16;;;;;;;13.15;11.85;;;;;;;;;;5013944;28;20053;-73
2023/04/18 09:31:54;;;;;;;11.32;10.32;;;;;;;;;;5015297;28;20108;-71
2023/04/18 09:34:23;;;;;;;11.95;10.65;;;;;;;;;;5015463;28;20049;-73
2023/04/18 09:37:04;;;;;;;14.02;12.40;;;;;;;;;;5015983;28;20029;-71
2023/04/18 09:39:29;;;;;;;9.98;9.02;;;;;;;;;;5015814;28;20029;-73
2023/04/18 09:41:58;;;;;;;9.27;8.35;;;;;;;;;;5015676;28;20029;-73
2023/04/18 09:44:24;;;;;;;6.40;5.28;;;;;;;;;;5014918;28;20464;-71
2023/04/18 09:46:49;;;;;;;6.45;5.57;;;;;;;;;;5012608;28;20061;-72
2023/04/18 09:49:15;;;;;;;6.22;4.95;;;;;;;;;;5012835;28;20045;-72
2023/04/18 09:51:42;;;;;;;6.72;5.53;;;;;;;;;;5014646;28;20707;-71
2023/04/18 09:54:08;;;;;;;12.70;10.38;;;;;;;;;;5014023;28;20026;-71
2023/04/18 09:56:36;;;;;;;7.28;6.50;;;;;;;;;;5016754;28;20044;-72
2023/04/18 09:59:06;;;;;;;7.45;5.78;;;;;;;;;;5014911;28;20021;-72
2023/04/18 10:01:32;;;;;;;11.48;8.30;;;;;;;;;;5016052;28;20025;-72
2023/04/18 10:03:59;;;;;;;6.50;5.80;;;;;;;;;;5015601;28;20037;-71
2023/04/18 10:06:26;;;;;;;6.00;5.45;;;;;;;;;;5014494;28;20022;-72
2023/04/18 10:08:52;;;;;;;4.57;4.18;;;;;;;;;;5013810;28;20917;-72
2023/04/18 10:11:18;;;;;;;5.80;5.18;;;;;;;;;;5013127;28;20075;-71
2023/04/18 10:13:47;;;;;;;3.78;3.47;;;;;;;;;;5015395;28;20061;-71
2023/04/18 10:16:13;;;;;;;8.75;7.88;;;;;;;;;;5014615;28;20038;-72
2023/04/18 10:18:38;;;;;;;38.00;25.35;;;;;;;;;;5013120;28;20215;-72
2023/04/18 10:21:04;;;;;;;37.92;26.50;;;;;;;;;;5012963;28;20082;-72
2023/04/18 10:23:39;;;;;;;29.52;22.83;;;;;;;;;;5015085;28;20095;-72
2023/04/18 10:26:05;;;;;;;17.52;15.75;;;;;;;;;;5012253;28;20108;-71
2023/04/18 10:28:50;;;;;;;11.27;9.70;;;;;;;;;;5012762;28;20408;-71
2023/04/18 10:31:15;;;;;;;23.15;18.95;;;;;;;;;;5013845;28;20086;-72
2023/04/18 10:33:46;;;;;;;14.77;12.20;;;;;;;;;;5013620;28;20036;-72
2023/04/18 10:36:12;;;;;;;24.40;17.20;;;;;;;;;;5013343;28;20389;-72
2023/04/18 10:38:44;;;;;;;22.17;19.50;;;;;;;;;;5014928;28;20025;-71
2023/04/18 10:41:18;;;;;;;18.98;15.57;;;;;;;;;;5014953;28;20021;-71
2023/04/18 10:44:03;;;;;;;19.42;17.33;;;;;;;;;;5013335;28;20025;-73
2023/04/18 10:46:28;;;;;;;21.80;17.48;;;;;;;;;;5004919;28;20021;-71
2023/04/18 10:49:12;;;;;;;11.68;10.48;;;;;;;;;;5010809;28;20037;-72
2023/04/18 10:51:37;;;;;;;13.02;10.45;;;;;;;;;;5012775;28;20086;-71
2023/04/18 10:54:04;;;;;;;10.50;9.50;;;;;;;;;;5013492;28;20382;-71
2023/04/18 10:56:29;;;;;;;10.00;8.88;;;;;;;;;;5013687;28;20035;-73
2023/04/18 10:58:59;;;;;;;17.98;16.10;;;;;;;;;;5012885;28;20029;-73
2023/04/18 11:01:24;;;;;;;;;;;;;;;;;;5013196;28;20030;-71
2023/04/18 11:03:50;;;;;;;9.27;8.35;;;;;;;;;;5013585;28;19924;-73
2023/04/18 11:06:15;;;;;;;9.48;7.95;;;;;;;;;;5014134;28;20037;-72
2023/04/18 11:08:40;;;;;;;27.20;24.25;;;;;;;;;;5011421;28;20034;-73
2023/04/18 11:11:08;;;;;;;17.75;15.90;;;;;;;;;;5013739;28;20040;-72
2023/04/18 11:13:35;;;;;;;9.75;8.75;;;;;;;;;;5012735;28;20078;-71
2023/04/18 11:16:01;;;;;;;7.90;7.10;;;;;;;;;;5014591;28;20118;-74
2023/04/18 11:18:37;;;;;;;14.90;13.55;;;;;;;;;;5013857;28;20379;-71
2023/04/18 11:21:03;;;;;;;7.65;6.95;;;;;;;;;;5011548;28;20508;-73
2023/04/18 11:23:28;;;;;;;6.30;5.70;;;;;;;;;;5013905;28;20053;-72
2023/04/18 11:25:55;;;;;;;7.22;6.18;;;;;;;;;;5012820;28;20034;-72
2023/04/18 11:28:21;;;;;;;9.82;7.93;;;;;;;;;;5011350;28;20102;-72
2023/04/18 11:30:46;;;;;;;7.70;6.68;;;;;;;;;;5013637;28;20034;-71
2023/04/18 11:33:12;;;;;;;7.07;6.22;;;;;;;;;;5013128;28;20083;-73
2023/04/18 11:35:41;;;;;;;7.25;5.95;;;;;;;;;;5013522;28;20031;-73
2023/04/18 11:38:07;;;;;;;11.45;10.02;;;;;;;;;;5011129;28;20021;-73
2023/04/18 11:40:33;;;;;;;10.63;7.40;;;;;;;;;;5014174;28;20364;-73
2023/04/18 11:43:02;;;;;;;12.02;10.60;;;;;;;;;;5012132;28;20488;-73
2023/04/18 11:45:28;;;;;;;7.93;7.22;;;;;;;;;;5011577;28;20022;-74
2023/04/18 11:47:57;;;;;;;6.35;5.80;;;;;;;;;;5013486;28;20025;-72
2023/04/18 11:50:22;;;;;;;7.95;7.15;;;;;;;;;;5014402;28;20030;-72
2023/04/18 11:52:51;;;;;;;11.80;9.85;;;;;;;;;;5012581;28;20056;-73
2023/04/18 11:55:20;;;;;;;7.53;6.50;;;;;;;;;;5011266;28;20033;-72
2023/04/18 11:57:55;;;;;;;18.25;15.77;;;;;;;;;;5012869;28;20092;-73
2023/04/18 12:00:37;;;;;;;9.40;8.60;;;;;;;;;;5013220;28;20033;-72
2023/04/18 12:03:08;;;;;;;7.22;6.65;;;;;;;;;;5012380;28;20029;-74
2023/04/18 12:05:35;;;;;;;5.57;5.13;;;;;;;;;;5014234;28;20151;-73
2023/04/18 12:08:08;;;;;;;5.30;4.80;;;;;;;;;;5016860;28;20060;-72
2023/04/18 12:10:34;;;;;;;7.90;7.10;;;;;;;;;;5016834;28;20029;-71
2023/04/18 12:13:00;;;;;;;7.13;6.53;;;;;;;;;;5015799;28;20028;-72
2023/04/18 12:15:27;;;;;;;6.28;5.68;;;;;;;;;;5016434;28;20021;-73
2023/04/18 12:17:56;;;;;;;8.00;6.78;;;;;;;;;;5015689;28;20038;-72
2023/04/18 12:20:23;;;;;;;11.30;9.07;;;;;;;;;;5015569;28;20175;-73
2023/04/18 12:22:50;;;;;;;9.52;8.43;;;;;;;;;;5015215;28;20120;-72
2023/04/18 12:25:23;;;;;;;14.15;12.27;;;;;;;;;;5014022;28;20160;-71
2023/04/18 12:28:05;;;;;;;8.88;7.15;;;;;;;;;;5015582;28;20164;-72
2023/04/18 12:30:31;;;;;;;4.18;3.88;;;;;;;;;;5015857;28;20030;-72
2023/04/18 12:32:58;;;;;;;8.85;6.93;;;;;;;;;;5016378;28;20459;-73
2023/04/18 12:35:24;;;;;;;11.93;10.40;;;;;;;;;;5013345;28;20030;-72
2023/04/18 12:37:51;;;;;;;8.27;6.68;;;;;;;;;;5014479;28;20022;-72
2023/04/18 12:40:17;;;;;;;7.28;6.45;;;;;;;;;;5017608;28;20029;-71
2023/04/18 12:42:43;;;;;;;5.35;4.85;;;;;;;;;;5012127;28;20463;-72
2023/04/18 12:45:09;;;;;;;15.07;13.52;;;;;;;;;;5004800;28;20026;-73
2023/04/18 12:47:36;;;;;;;9.52;7.60;;;;;;;;;;4999573;28;20026;-73
2023/04/18 12:50:01;;;;;;;5.75;5.15;;;;;;;;;;5001228;28;20041;-73
2023/04/18 12:52:27;;;;;;;6.35;5.50;;;;;;;;;;5002175;28;20033;-73
2023/04/18 12:54:55;;;;;;;6.30;5.72;;;;;;;;;;4992366;28;20051;-73
2023/04/18 12:57:21;;;;;;;8.18;7.38;;;;;;;;;;4997492;28;20024;-71
2023/04/18 12:59:47;;;;;;;9.60;8.30;;;;;;;;;;5001338;28;20022;-72
2023/04/18 13:02:12;;;;;;;12.02;9.55;;;;;;;;;;5002927;28;20036;-72
2023/04/18 13:04:37;;;;;;;14.98;11.55;;;;;;;;;;4999935;28;20033;-73
2023/04/18 13:07:03;;;;;;;8.07;7.22;;;;;;;;;;5001867;28;20070;-72
2023/04/18 13:09:28;;;;;;;7.70;6.80;;;;;;;;;;5002284;28;20531;-71
2023/04/18 13:11:53;;;;;;;7.47;6.70;;;;;;;;;;5001505;28;20034;-72
2023/04/18 13:14:19;;;;;;;6.88;6.28;;;;;;;;;;5002136;28;20037;-72
2023/04/18 13:16:45;;;;;;;10.70;9.70;;;;;;;;;;5002883;28;20036;-71
2023/04/18 13:19:10;;;;;;;6.43;5.85;;;;;;;;;;5000776;28;20370;-72
2023/04/18 13:21:36;;;;;;;5.13;4.70;;;;;;;;;;5001455;28;20026;-72
2023/04/18 13:24:01;;;;;;;6.93;6.22;;;;;;;;;;4995977;28;20055;-73
2023/04/18 13:26:26;;;;;;;6.70;5.95;;;;;;;;;;5001191;28;20040;-74
2023/04/18 13:28:52;;;;;;;8.85;7.95;;;;;;;;;;5001534;28;20053;-73
2023/04/18 13:31:17;;;;;;;6.70;6.05;;;;;;;;;;4999588;28;20029;-72
2023/04/18 13:33:42;;;;;;;21.35;16.90;;;;;;;;;;5000023;28;20025;-72
2023/04/18 13:36:08;;;;;;;9.90;8.93;;;;;;;;;;5001326;28;20029;-72
2023/04/18 13:38:33;;;;;;;14.68;11.95;;;;;;;;;;5001671;28;20052;-73
2023/04/18 13:40:59;;;;;;;8.40;6.97;;;;;;;;;;4997854;28;20026;-72
2023/04/18 13:43:25;;;;;;;17.60;14.73;;;;;;;;;;5002291;28;20051;-71
2023/04/18 13:45:52;;;;;;;13.20;10.80;;;;;;;;;;4996913;28;20038;-75
2023/04/18 13:48:18;;;;;;;34.22;27.50;;;;;;;;;;5007913;28;20070;-71
2023/04/18 13:50:43;;;;;;;14.82;12.25;;;;;;;;;;5003953;28;20021;-72
2023/04/18 13:53:09;;;;;;;15.65;13.70;;;;;;;;;;5013573;28;20444;-71
2023/04/18 13:55:34;;;;;;;20.13;18.02;;;;;;;;;;5001550;28;20037;-71
2023/04/18 13:58:00;;;;;;;11.48;9.20;;;;;;;;;;5005842;28;20393;-72
2023/04/18 14:00:25;;;;;;;8.70;7.80;;;;;;;;;;5010993;28;20040;-72
2023/04/18 14:02:51;;;;;;;11.45;8.98;;;;;;;;;;4998815;28;20356;-71
2023/04/18 14:05:16;;;;;;;30.08;26.13;;;;;;;;;;5009756;28;20079;-72
2023/04/18 14:07:42;;;;;;;8.88;7.97;;;;;;;;;;5003667;28;20136;-72
2023/04/18 14:10:07;;;;;;;22.70;18.88;;;;;;;;;;5001812;28;20368;-71
2023/04/18 14:12:33;;;;;;;18.42;16.20;;;;;;;;;;5004183;28;20022;-71
2023/04/18 14:14:58;;;;;;;17.67;15.77;;;;;;;;;;5013919;28;20030;-73
2023/04/18 14:17:24;;;;;;;74.40;63.78;;;;;;;;;;5014843;28;20034;-72
2023/04/18 14:19:50;;;;;;;42.13;34.05;;;;;;;;;;5010009;28;20026;-72
2023/04/18 14:22:15;;;;;;;37.47;31.35;;;;;;;;;;5006294;28;20810;-71
2023/04/18 14:24:41;;;;;;;16.20;13.27;;;;;;;;;;4998165;28;20031;-72
2023/04/18 14:27:06;;;;;;;15.35;12.55;;;;;;;;;;4997362;28;20030;-72
2023/04/18 14:29:32;;;;;;;19.40;15.57;;;;;;;;;;5000030;28;20117;-72